createdAt,value
2023-03-04T00:01:01.121Z,81.44
2023-03-04T00:04:04.325Z,81.35
2023-03-04T00:07:07.175Z,81.34
2023-03-04T00:10:11.298Z,81.35
2023-03-04T00:13:14.232Z,81.11
2023-03-04T00:16:17.152Z,81.14
2023-03-04T00:19:20.066Z,81.04
2023-03-04T00:27:18.614Z,81.01
2023-03-04T00:35:39.243Z,80.67
2023-03-04T00:38:42.226Z,80.51
2023-03-04T00:41:45.068Z,80.53
2023-03-04T00:44:49.797Z,80.28
2023-03-04T00:48:08.505Z,80.16
2023-03-04T00:51:11.725Z,80.26
2023-03-04T00:54:14.662Z,80.04
2023-03-04T00:57:17.704Z,80.04
2023-03-04T01:00:21.349Z,79.83
2023-03-04T01:03:24.820Z,79.86
2023-03-04T01:06:27.824Z,79.71
2023-03-04T01:09:30.836Z,79.72
2023-03-04T01:13:08.915Z,79.67
2023-03-04T01:16:13.185Z,79.32
2023-03-04T01:19:19.688Z,79.40
2023-03-04T01:22:23.156Z,79.33
2023-03-04T01:25:26.018Z,79.36
2023-03-04T01:28:57.613Z,79.26
2023-03-04T01:32:00.489Z,79.12
2023-03-04T01:35:06.420Z,78.99
2023-03-04T01:38:09.497Z,78.83
2023-03-04T01:41:14.546Z,78.77
2023-03-04T01:44:17.615Z,78.86
2023-03-04T01:48:30.453Z,78.57
2023-03-04T01:51:33.473Z,78.60
2023-03-04T01:54:42.993Z,78.67
2023-03-04T01:57:54.406Z,78.73
2023-03-04T02:00:57.896Z,78.77
2023-03-04T02:04:01.101Z,78.48
2023-03-04T02:07:04.949Z,78.46
2023-03-04T02:10:08.590Z,78.75
2023-03-04T02:13:16.712Z,78.40
2023-03-04T02:16:19.831Z,78.60
2023-03-04T02:19:28.601Z,78.46
2023-03-04T02:22:32.880Z,78.17
2023-03-04T02:25:58.147Z,78.32
2023-03-04T02:29:03.199Z,78.32
2023-03-04T02:32:06.409Z,78.28
2023-03-04T02:35:17.466Z,78.33
2023-03-04T02:38:20.278Z,78.09
2023-03-04T02:41:26.547Z,78.44
2023-03-04T02:44:36.138Z,78.34
2023-03-04T02:47:38.977Z,78.40
2023-03-04T02:50:49.102Z,78.32
2023-03-04T02:53:51.947Z,78.05
2023-03-04T02:56:59.240Z,78.21
2023-03-04T03:00:02.215Z,78.14
2023-03-04T03:03:05.894Z,78.25
2023-03-04T03:06:09.153Z,78.17
2023-03-04T03:09:12.031Z,78.21
2023-03-04T03:12:14.821Z,78.18
2023-03-04T03:15:17.836Z,78.17
2023-03-04T03:18:37.486Z,78.16
2023-03-04T03:21:40.306Z,78.14
2023-03-04T03:24:44.463Z,78.21
2023-03-04T03:27:47.324Z,78.19
2023-03-04T03:30:50.202Z,78.12
2023-03-04T03:33:53.008Z,78.21
2023-03-04T03:36:55.842Z,78.09
2023-03-04T03:39:58.891Z,77.95
2023-03-04T03:43:01.874Z,77.96
2023-03-04T03:46:05.065Z,77.88
2023-03-04T03:49:08.014Z,77.85
2023-03-04T03:52:11.450Z,77.77
2023-03-04T03:55:14.820Z,77.42
2023-03-04T03:58:17.708Z,77.46
2023-03-04T04:01:20.744Z,77.49
2023-03-04T04:04:23.641Z,77.34
2023-03-04T04:07:26.500Z,77.70
2023-03-04T04:10:29.734Z,77.24
2023-03-04T04:13:32.663Z,77.41
2023-03-04T04:16:50.191Z,77.26
2023-03-04T04:19:53.186Z,77.24
2023-03-04T04:22:56.231Z,77.30
2023-03-04T04:25:59.158Z,77.35
2023-03-04T04:29:01.997Z,77.26
2023-03-04T04:32:23.420Z,77.26
2023-03-04T04:35:26.501Z,77.29
2023-03-04T04:38:29.336Z,77.31
2023-03-04T04:41:37.928Z,77.34
2023-03-04T04:44:41.291Z,77.26
2023-03-04T04:47:44.208Z,77.35
2023-03-04T04:50:47.293Z,77.33
2023-03-04T04:53:50.238Z,77.37
2023-03-04T04:56:53.573Z,77.29
2023-03-04T04:59:56.420Z,77.62
2023-03-04T05:02:59.274Z,77.70
2023-03-04T05:06:03.748Z,77.85
2023-03-04T05:09:07.309Z,77.97
2023-03-04T05:12:10.370Z,78.05
2023-03-04T05:15:13.247Z,78.17
2023-03-04T05:18:16.158Z,78.48
2023-03-04T05:21:19.061Z,78.39
2023-03-04T05:24:21.961Z,78.44
2023-03-04T05:27:24.816Z,78.53
2023-03-04T05:30:53.190Z,78.46
2023-03-04T05:33:56.135Z,78.51
2023-03-04T05:36:59.009Z,78.61
2023-03-04T05:40:01.947Z,78.49
2023-03-04T05:43:05.267Z,78.71
2023-03-04T05:46:09.015Z,78.67
2023-03-04T05:49:11.885Z,79.10
2023-03-04T05:52:14.682Z,79.19
2023-03-04T05:55:18.148Z,79.14
2023-03-04T05:58:21.787Z,79.06
2023-03-04T06:01:24.713Z,79.43
2023-03-04T06:04:27.607Z,79.25
2023-03-04T06:07:30.654Z,79.18
2023-03-04T06:10:59.475Z,79.29
2023-03-04T06:14:04.366Z,79.48
2023-03-04T06:17:07.328Z,79.54
2023-03-04T06:20:11.865Z,79.58
2023-03-04T06:23:15.058Z,79.69
2023-03-04T06:26:18.190Z,79.54
2023-03-04T06:29:22.325Z,79.82
2023-03-04T06:32:27.231Z,80.00
2023-03-04T06:35:31.497Z,79.98
2023-03-04T06:38:34.517Z,80.17
2023-03-04T06:41:37.929Z,80.22
2023-03-04T06:44:40.790Z,80.28
2023-03-04T06:47:45.204Z,80.22
2023-03-04T06:50:48.005Z,80.27
2023-03-04T06:53:50.780Z,80.30
2023-03-04T06:56:53.727Z,80.37
2023-03-04T06:59:56.668Z,80.17
2023-03-04T07:03:00.006Z,80.22
2023-03-04T07:06:03.496Z,80.45
2023-03-04T07:09:06.390Z,80.10
2023-03-04T07:12:09.203Z,80.23
2023-03-04T07:15:12.226Z,80.28
2023-03-04T07:18:15.110Z,80.38
2023-03-04T07:21:18.374Z,80.32
2023-03-04T07:24:21.212Z,80.52
2023-03-04T07:27:24.594Z,80.47
2023-03-04T07:30:27.743Z,80.42
2023-03-04T07:33:30.458Z,80.18
2023-03-04T07:36:35.739Z,80.26
2023-03-04T07:39:38.731Z,80.28
2023-03-04T07:42:41.538Z,80.31
2023-03-04T07:45:44.440Z,80.32
2023-03-04T07:48:47.276Z,80.22
2023-03-04T07:51:50.118Z,80.22
2023-03-04T07:54:52.891Z,80.19
2023-03-04T07:57:55.684Z,80.22
2023-03-04T08:00:59.219Z,80.06
2023-03-04T08:04:04.221Z,80.24
2023-03-04T08:07:07.058Z,80.46
2023-03-04T08:10:10.873Z,80.51
2023-03-04T08:13:13.738Z,80.29
2023-03-04T08:16:19.348Z,80.50
2023-03-04T08:19:23.604Z,80.61
2023-03-04T08:22:27.337Z,80.59
2023-03-04T08:25:30.311Z,80.69
2023-03-04T08:28:33.297Z,80.78
2023-03-04T08:31:36.532Z,80.78
2023-03-04T08:34:40.719Z,80.82
2023-03-04T08:37:43.541Z,80.84
2023-03-04T08:40:46.332Z,80.93
2023-03-04T08:43:49.078Z,80.88
2023-03-04T08:46:51.862Z,80.89
2023-03-04T08:49:54.780Z,80.89
2023-03-04T08:52:59.366Z,81.02
2023-03-04T08:56:06.225Z,80.88
2023-03-04T08:59:09.085Z,80.92
2023-03-04T09:02:11.994Z,81.17
2023-03-04T09:05:14.948Z,81.30
2023-03-04T09:08:18.729Z,81.31
2023-03-04T09:11:22.026Z,81.33
2023-03-04T09:14:24.806Z,81.45
2023-03-04T09:17:27.709Z,81.50
2023-03-04T09:20:32.133Z,81.54
2023-03-04T09:23:36.146Z,81.51
2023-03-04T09:26:39.335Z,81.50
2023-03-04T09:29:44.567Z,81.48
2023-03-04T09:32:47.428Z,81.40
2023-03-04T09:35:50.272Z,81.47
2023-03-04T09:38:53.509Z,81.46
2023-03-04T09:41:58.939Z,81.33
2023-03-04T09:45:03.685Z,81.39
2023-03-04T09:48:07.342Z,81.28
2023-03-04T09:51:16.326Z,81.36
2023-03-04T09:54:32.442Z,81.43
2023-03-04T09:58:00.896Z,81.46
2023-03-04T10:01:26.937Z,81.52
2023-03-04T10:04:50.536Z,81.57
2023-03-04T10:07:59.738Z,81.65
2023-03-04T10:11:04.313Z,81.61
2023-03-04T10:14:22.496Z,81.70
2023-03-04T10:17:37.166Z,81.71
2023-03-04T10:21:06.271Z,81.94
2023-03-04T10:24:18.270Z,81.99
2023-03-04T10:27:21.428Z,82.05
2023-03-04T10:31:04.596Z,82.27
2023-03-04T10:34:10.498Z,82.40
2023-03-04T10:37:13.892Z,82.40
2023-03-04T10:40:20.404Z,82.48
2023-03-04T10:43:23.264Z,82.35
2023-03-04T10:46:26.858Z,82.32
2023-03-04T10:49:30.241Z,82.28
2023-03-04T10:52:40.316Z,82.01
2023-03-04T10:55:45.410Z,81.98
2023-03-04T10:58:48.376Z,81.91
2023-03-04T11:01:53.972Z,82.02
2023-03-04T11:05:09.920Z,81.90
2023-03-04T11:08:23.607Z,81.87
2023-03-04T11:11:38.229Z,81.68
2023-03-04T11:14:46.744Z,81.61
2023-03-04T11:17:53.763Z,81.39
2023-03-04T11:20:59.997Z,81.04
2023-03-04T11:24:08.159Z,80.98
2023-03-04T11:27:21.547Z,80.87
2023-03-04T11:30:40.001Z,80.73
2023-03-04T11:34:13.260Z,80.51
2023-03-04T11:37:38.461Z,80.28
2023-03-04T11:40:44.652Z,80.11
2023-03-04T11:43:49.863Z,79.80
2023-03-04T11:47:09.987Z,79.66
2023-03-04T11:50:28.260Z,79.60
2023-03-04T11:53:34.115Z,79.50
2023-03-04T11:56:44.691Z,79.58
2023-03-04T11:59:56.588Z,79.35
2023-03-04T12:03:14.742Z,79.40
2023-03-04T12:07:02.373Z,79.27
2023-03-04T12:10:24.459Z,79.23
2023-03-04T12:13:36.512Z,79.13
2023-03-04T12:17:40.875Z,79.03
2023-03-04T12:20:53.571Z,78.83
2023-03-04T12:24:34.670Z,78.60
2023-03-04T12:28:11.776Z,78.33
2023-03-04T12:31:17.539Z,77.80
2023-03-04T12:34:33.706Z,77.14
2023-03-04T12:37:49.242Z,76.60
2023-03-04T12:40:58.945Z,75.89
2023-03-04T12:44:17.182Z,75.49
2023-03-04T12:47:43.617Z,75.75
2023-03-04T12:50:57.400Z,75.54
2023-03-04T12:54:18.800Z,75.72
2023-03-04T12:57:25.413Z,75.50
2023-03-04T13:00:37.467Z,75.65
2023-03-04T13:04:04.134Z,75.58
2023-03-04T13:07:19.214Z,75.37
2023-03-04T13:10:23.915Z,75.53
2023-03-04T13:13:32.796Z,75.07
2023-03-04T13:16:38.520Z,75.11
2023-03-04T13:19:51.336Z,75.10
2023-03-04T13:23:09.168Z,75.09
2023-03-04T13:26:20.996Z,75.34
2023-03-04T13:29:24.416Z,75.33
2023-03-04T13:32:38.733Z,75.08
2023-03-04T13:35:53.920Z,74.16
2023-03-04T13:39:23.299Z,73.52
2023-03-04T13:42:43.437Z,72.88
2023-03-04T13:45:48.476Z,72.38
2023-03-04T13:48:57.017Z,71.78
2023-03-04T13:52:38.285Z,71.21
2023-03-04T13:55:43.527Z,70.06
2023-03-04T13:58:48.116Z,70.11
2023-03-04T14:02:01.163Z,69.47
2023-03-04T14:10:15.067Z,67.65
2023-03-04T14:13:18.114Z,67.23
2023-03-04T14:17:06.194Z,67.62
2023-03-04T14:20:30.677Z,66.02
2023-03-04T14:23:36.392Z,66.72
2023-03-04T14:26:39.369Z,66.03
2023-03-04T14:29:42.623Z,65.79
2023-03-04T14:32:48.220Z,65.25
2023-03-04T14:36:02.708Z,66.29
2023-03-04T14:39:07.454Z,64.72
2023-03-04T14:42:14.648Z,64.95
2023-03-04T14:50:19.614Z,65.37
2023-03-04T14:54:24.578Z,65.19
2023-03-04T14:57:34.207Z,64.78
2023-03-04T15:00:41.136Z,64.10
2023-03-04T15:04:11.666Z,63.76
2023-03-04T15:12:28.366Z,64.36
2023-03-04T15:15:43.388Z,64.21
2023-03-04T15:19:05.950Z,64.23
2023-03-04T15:22:09.689Z,62.99
2023-03-04T15:25:15.601Z,64.48
2023-03-04T15:28:19.575Z,64.23
2023-03-04T15:31:24.250Z,64.47
2023-03-04T15:34:27.698Z,64.17
2023-03-04T15:37:30.598Z,64.44
2023-03-04T15:45:26.572Z,64.61
2023-03-04T15:48:56.122Z,64.14
2023-03-04T15:51:59.028Z,63.82
2023-03-04T15:55:01.915Z,64.16
2023-03-04T15:58:05.106Z,64.00
2023-03-04T16:01:13.848Z,64.47
2023-03-04T16:04:17.728Z,64.22
2023-03-04T16:07:25.062Z,64.43
2023-03-04T16:15:19.619Z,64.99
2023-03-04T16:18:23.930Z,64.53
2023-03-04T16:22:22.375Z,64.59
2023-03-04T16:25:26.362Z,64.53
2023-03-04T16:28:29.488Z,64.48
2023-03-04T16:31:32.327Z,65.24
2023-03-04T16:34:35.441Z,65.10
2023-03-04T16:37:38.773Z,65.22
2023-03-04T16:41:20.874Z,65.40
2023-03-04T16:44:23.706Z,65.27
2023-03-04T16:53:31.458Z,65.00
2023-03-04T16:56:34.361Z,65.21
2023-03-04T16:59:37.332Z,65.72
2023-03-04T17:02:40.937Z,65.69
2023-03-04T17:05:44.481Z,65.49
2023-03-04T17:08:47.478Z,65.16
2023-03-04T17:12:48.159Z,65.06
2023-03-04T17:15:51.122Z,64.95
2023-03-04T17:18:54.450Z,65.08
2023-03-04T17:21:58.969Z,65.66
2023-03-04T17:25:03.082Z,66.26
2023-03-04T17:28:05.966Z,66.53
2023-03-04T17:31:14.259Z,66.70
2023-03-04T17:34:18.477Z,66.85
2023-03-04T17:37:21.858Z,66.97
2023-03-04T17:40:24.680Z,67.12
2023-03-04T17:43:27.503Z,67.29
2023-03-04T17:46:30.438Z,67.69
2023-03-04T17:49:34.335Z,67.92
2023-03-04T17:52:37.287Z,68.05
2023-03-04T17:55:41.869Z,68.04
2023-03-04T17:58:48.236Z,68.16
2023-03-04T18:01:54.110Z,68.03
2023-03-04T18:04:57.178Z,68.17
2023-03-04T18:07:59.968Z,68.30
2023-03-04T18:11:02.944Z,68.18
2023-03-04T18:14:06.606Z,68.28
2023-03-04T18:17:09.363Z,67.94
2023-03-04T18:24:46.902Z,67.64
2023-03-04T18:27:49.762Z,67.21
2023-03-04T18:30:53.604Z,67.27
2023-03-04T18:38:51.231Z,66.57
2023-03-04T18:41:54.074Z,66.90
2023-03-04T18:49:52.994Z,66.85
2023-03-04T18:52:55.813Z,66.85
2023-03-04T18:56:38.209Z,66.94
2023-03-04T19:04:14.473Z,66.36
2023-03-04T19:07:17.370Z,66.88
2023-03-04T19:10:20.756Z,66.62
2023-03-04T19:13:23.615Z,66.54
2023-03-04T19:16:26.588Z,66.40
2023-03-04T19:19:29.512Z,66.53
2023-03-04T19:27:21.426Z,67.31
2023-03-04T19:30:24.285Z,67.12
2023-03-04T19:33:27.216Z,66.94
2023-03-04T19:36:30.854Z,66.93
2023-03-04T19:39:33.647Z,66.74
2023-03-04T19:42:37.062Z,66.45
2023-03-04T19:45:40.604Z,65.80
2023-03-04T19:48:45.209Z,65.82
2023-03-04T19:51:48.613Z,65.41
2023-03-04T19:55:17.922Z,64.64
2023-03-04T19:58:21.405Z,65.22
2023-03-04T20:01:33.592Z,65.73
2023-03-04T20:04:36.493Z,65.59
2023-03-04T20:15:15.256Z,65.81
2023-03-04T20:18:18.061Z,65.81
2023-03-04T20:21:21.544Z,65.72
2023-03-04T20:24:25.203Z,65.58
2023-03-04T20:27:28.001Z,65.58
2023-03-04T20:30:30.730Z,65.74
2023-03-04T20:33:33.488Z,65.64
2023-03-04T20:36:38.692Z,65.97
2023-03-04T20:39:41.582Z,66.00
2023-03-04T20:42:44.384Z,66.43
2023-03-04T20:45:47.188Z,66.66
2023-03-04T20:48:50.033Z,66.72
2023-03-04T20:51:54.992Z,66.68
2023-03-04T20:54:57.847Z,66.64
2023-03-04T20:58:00.839Z,66.64
2023-03-04T21:01:31.182Z,66.75
2023-03-04T21:04:35.046Z,66.71
2023-03-04T21:07:37.936Z,66.86
2023-03-04T21:10:40.784Z,66.69
2023-03-04T21:13:46.774Z,66.86
2023-03-04T21:16:51.965Z,66.49
2023-03-04T21:19:55.015Z,66.68
2023-03-04T21:22:57.914Z,66.73
2023-03-04T21:26:00.695Z,66.71
2023-03-04T21:29:03.892Z,66.83
2023-03-04T21:32:24.441Z,67.07
2023-03-04T21:35:28.040Z,66.92
2023-03-04T21:38:31.045Z,67.02
2023-03-04T21:41:34.082Z,66.97
2023-03-04T21:44:48.721Z,66.67
2023-03-04T21:47:52.955Z,66.84
2023-03-04T21:51:46.955Z,66.70
2023-03-04T21:54:49.990Z,66.31
2023-03-04T22:07:30.554Z,66.54
2023-03-04T22:10:38.443Z,66.47
2023-03-04T22:13:43.311Z,66.29
2023-03-04T22:16:55.326Z,66.18
2023-03-04T22:19:59.293Z,65.98
2023-03-04T22:23:02.847Z,65.78
2023-03-04T22:26:18.303Z,65.88
2023-03-04T22:34:18.660Z,65.80
2023-03-04T22:37:21.706Z,66.01
2023-03-04T22:40:24.946Z,65.98
2023-03-04T22:43:27.784Z,65.87
2023-03-04T22:46:33.382Z,66.14
2023-03-04T22:49:37.912Z,65.65
2023-03-04T22:57:33.245Z,65.78
2023-03-04T23:00:38.149Z,65.93
2023-03-04T23:03:46.355Z,65.96
2023-03-04T23:06:49.423Z,65.69
2023-03-04T23:09:52.422Z,65.83
2023-03-04T23:12:55.419Z,65.76
2023-03-04T23:16:01.886Z,65.85
2023-03-04T23:19:06.027Z,65.86
2023-03-04T23:22:09.055Z,65.93
2023-03-04T23:25:12.792Z,65.67
2023-03-04T23:28:15.654Z,65.76
2023-03-04T23:31:19.165Z,65.38
2023-03-04T23:34:22.495Z,65.58
2023-03-04T23:37:25.436Z,65.70
2023-03-04T23:40:28.254Z,65.57
2023-03-04T23:43:32.020Z,65.28
2023-03-04T23:46:37.811Z,65.66
2023-03-04T23:49:40.683Z,65.17
2023-03-04T23:53:03.181Z,65.63
2023-03-04T23:56:14.328Z,65.41
2023-03-04T23:59:17.256Z,64.93
